Terminal Aerodrome Forecast
Issued by NWS

Home | Current Version | Previous Version | Graphics & Text | Print | Product List | Glossary On
Versions: 1 2 3 4 5 6 7 8 9 10 11 12 13 14 15
000
FTUS43 KBIS 020529
TAFJMS
TAF
KJMS 020529Z 0206/0306 20009KT P6SM SCT250
     FM021600 20015G25KT P6SM SCT120
     FM022100 22018G29KT P6SM VCTS BKN100CB
     FM030000 25016G25KT P6SM VCTS BKN080CB
     FM030300 18006KT P6SM VCSH BKN100=

USA.gov is the U.S. government's official web portal to all federal, state and local government web resources and services.